createdAt,value
2022-11-16T00:02:12.720Z,97478.69
2022-11-16T00:04:41.099Z,97487.47
2022-11-16T00:07:09.896Z,97490.00
2022-11-16T00:09:39.498Z,97481.13
2022-11-16T00:12:10.996Z,97488.13
2022-11-16T00:14:39.261Z,97487.00
2022-11-16T00:17:09.349Z,97496.34
2022-11-16T00:19:37.611Z,97497.75
2022-11-16T00:22:05.850Z,97512.78
2022-11-16T00:24:34.110Z,97512.38
2022-11-16T00:27:03.520Z,97504.19
2022-11-16T00:29:31.740Z,97504.59
2022-11-16T00:32:00.002Z,97506.91
2022-11-16T00:34:28.892Z,97498.06
2022-11-16T00:36:57.084Z,97510.81
2022-11-16T00:39:25.730Z,97507.34
2022-11-16T00:41:53.873Z,97506.72
2022-11-16T00:44:23.400Z,97516.13
2022-11-16T00:46:51.828Z,97508.50
2022-11-16T00:49:20.010Z,97504.38
2022-11-16T00:51:48.351Z,97500.38
2022-11-16T00:54:16.615Z,97504.28
2022-11-16T00:56:44.767Z,97500.63
2022-11-16T00:59:13.638Z,97499.53
2022-11-16T01:01:44.962Z,97494.75
2022-11-16T01:04:13.250Z,97494.66
2022-11-16T01:06:43.482Z,97492.16
2022-11-16T01:09:11.751Z,97486.72
2022-11-16T01:11:57.788Z,97486.84
2022-11-16T01:14:26.042Z,97483.66
2022-11-16T01:16:55.559Z,97477.69
2022-11-16T01:19:23.762Z,97479.91
2022-11-16T01:21:51.921Z,97476.75
2022-11-16T01:24:20.071Z,97481.00
2022-11-16T01:26:48.312Z,97478.00
2022-11-16T01:29:16.601Z,97479.72
2022-11-16T01:31:51.231Z,97478.03
2022-11-16T01:34:21.158Z,97478.72
2022-11-16T01:36:50.588Z,97480.47
2022-11-16T01:39:21.180Z,97479.34
2022-11-16T01:41:54.142Z,97472.22
2022-11-16T01:44:59.492Z,97470.19
2022-11-16T01:47:28.281Z,97474.63
2022-11-16T01:50:05.981Z,97475.19
2022-11-16T01:52:40.591Z,97464.41
2022-11-16T01:55:09.889Z,97467.75
2022-11-16T01:57:57.664Z,97477.09
2022-11-16T02:00:25.941Z,97474.50
2022-11-16T02:03:07.440Z,97473.38
2022-11-16T02:06:04.173Z,97476.28
2022-11-16T02:09:07.468Z,97475.72
2022-11-16T02:11:59.760Z,97484.19
2022-11-16T02:14:38.970Z,97471.41
2022-11-16T02:17:13.520Z,97474.09
2022-11-16T02:20:01.595Z,97478.13
2022-11-16T02:22:46.870Z,97479.44
2022-11-16T02:25:25.048Z,97474.69
2022-11-16T02:28:14.158Z,97474.97
2022-11-16T02:30:48.112Z,97472.75
2022-11-16T02:33:19.831Z,97468.19
2022-11-16T02:35:51.260Z,97464.66
2022-11-16T02:38:24.810Z,97464.84
2022-11-16T02:40:57.149Z,97464.84
2022-11-16T02:43:32.288Z,97461.47
2022-11-16T02:46:06.079Z,97452.91
2022-11-16T02:48:36.229Z,97462.03
2022-11-16T02:51:07.400Z,97463.44
2022-11-16T02:53:42.320Z,97461.06
2022-11-16T02:56:14.341Z,97456.97
2022-11-16T02:58:43.550Z,97462.09
2022-11-16T03:01:17.556Z,97457.72
2022-11-16T03:03:53.780Z,97455.13
2022-11-16T03:06:24.919Z,97451.75
2022-11-16T03:09:01.764Z,97454.53
2022-11-16T03:11:50.051Z,97456.03
2022-11-16T03:14:24.206Z,97459.22
2022-11-16T03:16:57.736Z,97459.03
2022-11-16T03:19:31.073Z,97458.09
2022-11-16T03:22:04.998Z,97450.91
2022-11-16T03:24:34.238Z,97449.06
2022-11-16T03:27:07.199Z,97446.06
2022-11-16T03:29:41.730Z,97447.34
2022-11-16T03:32:20.178Z,97443.44
2022-11-16T03:34:57.838Z,97445.97
2022-11-16T03:37:28.700Z,97441.31
2022-11-16T03:40:02.760Z,97436.00
2022-11-16T03:42:34.330Z,97436.28
2022-11-16T03:45:04.436Z,97433.94
2022-11-16T03:47:33.932Z,97430.84
2022-11-16T03:50:02.249Z,97428.44
2022-11-16T03:52:31.280Z,97434.59
2022-11-16T03:55:00.236Z,97443.31
2022-11-16T03:57:28.478Z,97435.69
2022-11-16T04:00:00.029Z,97429.53
2022-11-16T04:02:31.008Z,97432.88
2022-11-16T04:05:19.068Z,97431.22
2022-11-16T04:08:06.750Z,97434.41
2022-11-16T04:10:52.886Z,97428.81
2022-11-16T04:13:43.607Z,97431.22
2022-11-16T04:16:29.818Z,97425.28
2022-11-16T04:19:17.529Z,97424.44
2022-11-16T04:22:08.010Z,97421.00
2022-11-16T04:24:41.310Z,97425.28
2022-11-16T04:27:30.819Z,97431.59
2022-11-16T04:30:01.937Z,97427.16
2022-11-16T04:32:49.839Z,97411.13
2022-11-16T04:35:36.500Z,97412.81
2022-11-16T04:38:06.268Z,97414.47
2022-11-16T04:40:36.579Z,97405.91
2022-11-16T04:43:06.188Z,97412.22
2022-11-16T04:45:55.311Z,97410.72
2022-11-16T04:48:27.677Z,97418.75
2022-11-16T04:50:56.658Z,97418.84
2022-11-16T04:53:28.051Z,97417.22
2022-11-16T04:56:05.627Z,97411.28
2022-11-16T04:58:35.080Z,97423.59
2022-11-16T05:01:03.992Z,97426.19
2022-11-16T05:03:32.430Z,97418.47
2022-11-16T05:06:01.657Z,97421.13
2022-11-16T05:08:32.245Z,97411.53
2022-11-16T05:11:01.251Z,97410.53
2022-11-16T05:13:29.908Z,97406.31
2022-11-16T05:15:58.640Z,97413.31
2022-11-16T05:18:27.648Z,97406.41
2022-11-16T05:21:01.102Z,97404.75
2022-11-16T05:23:52.831Z,97411.72
2022-11-16T05:26:23.822Z,97400.47
2022-11-16T05:28:53.319Z,97401.47
2022-11-16T05:31:22.190Z,97399.78
2022-11-16T05:33:50.550Z,97397.94
2022-11-16T05:36:20.129Z,97398.78
2022-11-16T05:38:52.721Z,97399.63
2022-11-16T05:41:26.010Z,97403.34
2022-11-16T05:43:55.328Z,97405.00
2022-11-16T05:46:24.741Z,97410.16
2022-11-16T05:48:54.661Z,97413.41
2022-11-16T05:51:23.369Z,97413.31
2022-11-16T05:53:54.289Z,97413.88
2022-11-16T05:56:24.509Z,97409.41
2022-11-16T05:58:54.442Z,97404.97
2022-11-16T06:01:23.294Z,97399.75
2022-11-16T06:03:52.849Z,97404.75
2022-11-16T06:06:21.249Z,97407.28
2022-11-16T06:08:51.120Z,97406.53
2022-11-16T06:11:26.494Z,97400.47
2022-11-16T06:13:56.458Z,97399.38
2022-11-16T06:16:25.410Z,97399.09
2022-11-16T06:18:56.152Z,97395.19
2022-11-16T06:21:25.028Z,97403.66
2022-11-16T06:23:54.648Z,97397.41
2022-11-16T06:26:22.791Z,97397.31
2022-11-16T06:28:54.905Z,97396.47
2022-11-16T06:31:24.331Z,97391.19
2022-11-16T06:33:52.479Z,97387.81
2022-11-16T06:36:25.275Z,97393.22
2022-11-16T06:38:54.381Z,97380.44
2022-11-16T06:41:23.674Z,97386.59
2022-11-16T06:43:53.994Z,97388.75
2022-11-16T06:46:26.848Z,97384.25
2022-11-16T06:48:55.352Z,97381.06
2022-11-16T06:51:23.470Z,97376.06
2022-11-16T06:53:51.550Z,97386.69
2022-11-16T06:56:21.121Z,97387.78
2022-11-16T06:58:56.831Z,97383.66
2022-11-16T07:01:26.948Z,97397.00
2022-11-16T07:04:00.847Z,97392.63
2022-11-16T07:06:29.030Z,97394.44
2022-11-16T07:08:57.981Z,97388.50
2022-11-16T07:11:30.491Z,97391.84
2022-11-16T07:14:01.138Z,97385.72
2022-11-16T07:16:30.444Z,97391.84
2022-11-16T07:19:02.122Z,97401.38
2022-11-16T07:21:32.658Z,97391.94
2022-11-16T07:24:03.638Z,97391.94
2022-11-16T07:26:33.710Z,97385.53
2022-11-16T07:29:10.261Z,97390.56
2022-11-16T07:31:43.235Z,97396.34
2022-11-16T07:34:27.754Z,97385.66
2022-11-16T07:37:15.009Z,97401.03
2022-11-16T07:39:45.640Z,97400.09
2022-11-16T07:42:14.641Z,97403.44
2022-11-16T07:45:02.759Z,97398.06
2022-11-16T07:47:38.371Z,97397.88
2022-11-16T07:50:10.939Z,97397.69
2022-11-16T07:52:39.401Z,97391.56
2022-11-16T07:55:11.249Z,97393.03
2022-11-16T07:57:39.542Z,97392.94
2022-11-16T08:00:11.981Z,97393.69
2022-11-16T08:02:46.630Z,97395.28
2022-11-16T08:05:19.453Z,97392.56
2022-11-16T08:07:49.990Z,97388.66
2022-11-16T08:10:19.867Z,97388.59
2022-11-16T08:12:47.930Z,97396.22
2022-11-16T08:15:19.080Z,97389.94
2022-11-16T08:17:47.340Z,97385.41
2022-11-16T08:20:15.801Z,97394.53
2022-11-16T08:22:45.200Z,97391.75
2022-11-16T08:25:13.936Z,97398.28
2022-11-16T08:27:45.766Z,97388.47
2022-11-16T08:30:14.871Z,97394.34
2022-11-16T08:32:45.911Z,97398.34
2022-11-16T08:35:15.940Z,97406.72
2022-11-16T08:37:45.770Z,97397.88
2022-11-16T08:40:14.621Z,97388.25
2022-11-16T08:42:44.171Z,97386.66
2022-11-16T08:45:13.511Z,97389.19
2022-11-16T08:47:42.744Z,97385.00
2022-11-16T08:50:12.384Z,97385.94
2022-11-16T08:52:40.763Z,97386.13
2022-11-16T08:55:10.245Z,97393.03
2022-11-16T08:57:39.398Z,97392.94
2022-11-16T09:00:12.812Z,97382.28
2022-11-16T09:02:41.021Z,97398.78
2022-11-16T09:05:12.021Z,97396.56
2022-11-16T09:07:43.502Z,97391.69
2022-11-16T09:10:12.088Z,97393.13
2022-11-16T09:12:40.599Z,97388.97
2022-11-16T09:15:09.648Z,97388.03
2022-11-16T09:17:37.691Z,97390.25
2022-11-16T09:20:06.832Z,97398.84
2022-11-16T09:22:35.100Z,97397.25
2022-11-16T09:25:04.881Z,97406.16
2022-11-16T09:27:33.333Z,97391.31
2022-11-16T09:30:03.662Z,97408.56
2022-11-16T09:32:31.759Z,97407.63
2022-11-16T09:34:59.981Z,97401.47
2022-11-16T09:37:28.052Z,97402.19
2022-11-16T09:39:57.800Z,97389.34
2022-11-16T09:42:38.282Z,97396.81
2022-11-16T09:45:14.811Z,97386.78
2022-11-16T09:47:50.221Z,97380.97
2022-11-16T09:50:28.009Z,97379.50
2022-11-16T09:53:01.192Z,97378.28
2022-11-16T09:55:34.979Z,97395.22
2022-11-16T09:58:07.191Z,97389.78
2022-11-16T10:00:38.515Z,97385.59
2022-11-16T10:03:12.206Z,97370.00
2022-11-16T10:05:46.050Z,97367.31
2022-11-16T10:08:16.279Z,97370.13
2022-11-16T10:10:52.972Z,97366.34
2022-11-16T10:13:36.405Z,97375.34
2022-11-16T10:16:11.579Z,97374.63
2022-11-16T10:18:49.821Z,97370.75
2022-11-16T10:21:47.007Z,97355.91
2022-11-16T10:24:27.149Z,97351.25
2022-11-16T10:27:07.540Z,97347.97
2022-11-16T10:29:50.308Z,97361.69
2022-11-16T10:32:26.101Z,97370.47
2022-11-16T10:34:55.410Z,97381.84
2022-11-16T10:37:29.313Z,97381.53
2022-11-16T10:39:57.770Z,97365.50
2022-11-16T10:42:32.197Z,97371.44
2022-11-16T10:45:13.450Z,97366.22
2022-11-16T10:47:46.749Z,97355.06
2022-11-16T10:50:32.915Z,97352.78
2022-11-16T10:53:01.932Z,97349.44
2022-11-16T10:55:30.190Z,97355.97
2022-11-16T10:58:00.161Z,97368.13
2022-11-16T11:00:38.890Z,97360.59
2022-11-16T11:03:07.619Z,97350.47
2022-11-16T11:05:36.890Z,97349.00
2022-11-16T11:08:07.824Z,97346.81
2022-11-16T11:10:37.809Z,97359.22
2022-11-16T11:13:21.889Z,97360.88
2022-11-16T11:15:51.510Z,97356.09
2022-11-16T11:18:26.945Z,97351.81
2022-11-16T11:21:08.165Z,97360.50
2022-11-16T11:23:44.457Z,97360.34
2022-11-16T11:26:34.757Z,97350.09
2022-11-16T11:29:18.148Z,97348.66
2022-11-16T11:31:50.829Z,97345.50
2022-11-16T11:34:22.741Z,97334.13
2022-11-16T11:36:55.198Z,97324.88
2022-11-16T11:39:41.770Z,97324.63
2022-11-16T11:42:24.485Z,97317.41
2022-11-16T11:44:59.002Z,97320.41
2022-11-16T11:47:57.306Z,97310.53
2022-11-16T11:50:32.690Z,97299.72
2022-11-16T11:53:07.090Z,97304.56
2022-11-16T11:55:35.599Z,97299.69
2022-11-16T11:58:05.699Z,97292.84
2022-11-16T12:00:46.991Z,97298.47
2022-11-16T12:03:51.059Z,97298.28
2022-11-16T12:06:23.740Z,97283.97
2022-11-16T12:09:14.758Z,97285.88
2022-11-16T12:11:57.910Z,97286.94
2022-11-16T12:14:41.589Z,97276.09
2022-11-16T12:17:19.190Z,97268.84
2022-11-16T12:20:06.541Z,97247.88
2022-11-16T12:22:50.840Z,97234.88
2022-11-16T12:25:27.000Z,97260.47
2022-11-16T12:28:12.719Z,97275.50
2022-11-16T12:30:53.170Z,97265.09
2022-11-16T12:33:31.802Z,97273.47
2022-11-16T12:36:09.583Z,97265.28
2022-11-16T12:38:52.150Z,97255.06
2022-11-16T12:41:49.851Z,97229.31
2022-11-16T12:44:27.679Z,97223.38
2022-11-16T12:47:03.792Z,97216.22
2022-11-16T12:49:46.419Z,97211.47
2022-11-16T12:52:34.067Z,97204.06
2022-11-16T12:55:26.395Z,97192.38
2022-11-16T12:58:08.651Z,97187.50
2022-11-16T13:00:51.378Z,97186.91
2022-11-16T13:03:24.069Z,97181.19
2022-11-16T13:05:59.189Z,97188.94
2022-11-16T13:08:39.902Z,97183.00
2022-11-16T13:11:15.621Z,97174.03
2022-11-16T13:13:52.710Z,97174.38
2022-11-16T13:16:22.243Z,97161.88
2022-11-16T13:18:51.396Z,97163.19
2022-11-16T13:21:29.678Z,97157.94
2022-11-16T13:24:09.656Z,97155.44
2022-11-16T13:26:45.101Z,97155.44
2022-11-16T13:29:22.193Z,97144.94
2022-11-16T13:31:57.101Z,97141.38
2022-11-16T13:34:28.522Z,97146.63
2022-11-16T13:36:56.800Z,97131.09
2022-11-16T13:39:57.739Z,97131.09
2022-11-16T13:42:28.008Z,97122.25
2022-11-16T13:45:07.827Z,97117.97
2022-11-16T13:47:37.000Z,97113.94
2022-11-16T13:50:08.141Z,97111.88
2022-11-16T13:53:23.527Z,97105.47
2022-11-16T13:55:34.948Z,97096.66
2022-11-16T13:58:07.120Z,97097.72
2022-11-16T14:00:37.737Z,97089.97
2022-11-16T14:03:38.330Z,97083.41
2022-11-16T14:06:32.719Z,97085.47
2022-11-16T14:09:00.850Z,97093.44
2022-11-16T14:11:32.079Z,97084.59
2022-11-16T14:14:05.644Z,97070.56
2022-11-16T14:16:49.116Z,97064.47
2022-11-16T14:19:56.215Z,97057.19
2022-11-16T14:22:38.908Z,97058.16
2022-11-16T14:25:18.178Z,97056.22
2022-11-16T14:27:54.198Z,97055.38
2022-11-16T14:30:26.466Z,97050.28
2022-11-16T14:32:56.759Z,97046.81
2022-11-16T14:35:30.204Z,97046.00
2022-11-16T14:38:00.498Z,97039.06
2022-11-16T14:40:29.073Z,97042.63
2022-11-16T14:43:16.039Z,97031.31
2022-11-16T14:45:50.217Z,97027.75
2022-11-16T14:48:20.313Z,97025.84
2022-11-16T14:51:01.231Z,97028.34
2022-11-16T14:53:30.631Z,97019.75
2022-11-16T14:56:07.916Z,97020.59
2022-11-16T14:58:37.029Z,97015.34
2022-11-16T15:01:09.299Z,97006.38
2022-11-16T15:03:42.371Z,97009.97
2022-11-16T15:06:10.632Z,97005.06
2022-11-16T15:08:44.421Z,97008.91
2022-11-16T15:11:15.158Z,97011.06
2022-11-16T15:13:46.801Z,97014.88
2022-11-16T15:16:19.260Z,97003.81
2022-11-16T15:19:13.170Z,96996.06
2022-11-16T15:21:41.338Z,96979.72
2022-11-16T15:27:10.610Z,96977.72
2022-11-16T15:29:39.518Z,96979.50
2022-11-16T15:32:17.148Z,96978.53
2022-11-16T15:34:48.761Z,96969.94
2022-11-16T15:37:27.829Z,96959.59
2022-11-16T15:39:56.927Z,96948.25
2022-11-16T15:42:27.078Z,96946.47
2022-11-16T15:44:56.657Z,96943.84
2022-11-16T15:47:27.093Z,96945.50
2022-11-16T15:49:55.468Z,96930.88
2022-11-16T15:52:42.529Z,96922.53
2022-11-16T15:55:32.789Z,96928.03
2022-11-16T15:58:03.319Z,96930.78
2022-11-16T16:00:32.808Z,96922.19
2022-11-16T16:03:07.169Z,96921.97
2022-11-16T16:05:37.959Z,96916.72
2022-11-16T16:08:07.219Z,96915.16
2022-11-16T16:10:35.408Z,96916.13
2022-11-16T16:13:04.421Z,96921.34
2022-11-16T16:15:36.692Z,96900.53
2022-11-16T16:18:35.429Z,96899.00
2022-11-16T16:21:04.277Z,96895.41
2022-11-16T16:23:32.720Z,96891.13
2022-11-16T16:26:04.859Z,96895.63
2022-11-16T16:28:32.988Z,96887.91
2022-11-16T16:31:01.107Z,96880.16
2022-11-16T16:33:31.759Z,96873.34
2022-11-16T16:36:00.429Z,96880.53
2022-11-16T16:38:28.601Z,96873.63
2022-11-16T16:41:01.939Z,96870.28
2022-11-16T16:43:30.619Z,96871.84
2022-11-16T16:46:02.140Z,96861.34
2022-11-16T16:48:31.874Z,96865.75
2022-11-16T16:51:00.048Z,96854.19
2022-11-16T16:53:28.252Z,96854.19
2022-11-16T16:55:56.498Z,96849.78
2022-11-16T16:58:24.669Z,96843.69
2022-11-16T17:00:56.925Z,96835.84
2022-11-16T17:03:28.158Z,96832.38
2022-11-16T17:06:02.879Z,96823.56
2022-11-16T17:08:34.928Z,96819.88
2022-11-16T17:11:03.619Z,96823.19
2022-11-16T17:13:32.006Z,96813.41
2022-11-16T17:16:00.329Z,96811.75
2022-11-16T17:18:28.509Z,96809.13
2022-11-16T17:20:56.640Z,96806.50
2022-11-16T17:23:26.100Z,96797.00
2022-11-16T17:25:54.667Z,96797.00
2022-11-16T17:28:22.748Z,96796.88
2022-11-16T17:30:50.941Z,96792.44
2022-11-16T17:33:19.039Z,96788.03
2022-11-16T17:35:56.160Z,96781.13
2022-11-16T17:38:25.690Z,96787.22
2022-11-16T17:40:53.747Z,96784.47
2022-11-16T17:43:21.900Z,96776.72
2022-11-16T17:45:50.007Z,96775.06
2022-11-16T17:48:18.179Z,96774.94
2022-11-16T17:50:48.640Z,96771.47
2022-11-16T17:53:16.831Z,96772.31
2022-11-16T17:55:46.240Z,96770.66
2022-11-16T17:58:14.549Z,96761.97
2022-11-16T18:00:42.738Z,96760.16
2022-11-16T18:03:10.930Z,96749.94
2022-11-16T18:05:39.019Z,96747.47
2022-11-16T18:08:08.111Z,96744.13
2022-11-16T18:10:37.200Z,96738.16
2022-11-16T18:13:07.807Z,96733.91
2022-11-16T18:15:41.977Z,96728.66
2022-11-16T18:18:10.899Z,96727.00
2022-11-16T18:20:39.243Z,96721.75
2022-11-16T18:23:07.459Z,96725.19
2022-11-16T18:25:36.912Z,96717.47
2022-11-16T18:28:06.399Z,96713.88
2022-11-16T18:30:34.500Z,96720.78
2022-11-16T18:33:02.630Z,96716.25
2022-11-16T18:35:30.752Z,96705.75
2022-11-16T18:37:58.912Z,96710.16
2022-11-16T18:40:27.100Z,96707.56
2022-11-16T18:42:55.320Z,96698.03
2022-11-16T18:45:24.752Z,96703.28
2022-11-16T18:47:52.929Z,96701.47
2022-11-16T18:50:26.531Z,96691.97
2022-11-16T18:52:55.062Z,96695.53
2022-11-16T18:55:23.199Z,96685.31
2022-11-16T18:57:51.362Z,96681.97
2022-11-16T19:00:21.267Z,96681.28
2022-11-16T19:02:50.819Z,96683.91
2022-11-16T19:05:18.990Z,96672.69
2022-11-16T19:07:47.370Z,96675.47
2022-11-16T19:10:15.819Z,96672.28
2022-11-16T19:12:43.993Z,96663.69
2022-11-16T19:15:12.338Z,96668.09
2022-11-16T19:17:59.574Z,96654.44
2022-11-16T19:20:30.111Z,96645.75
2022-11-16T19:22:59.031Z,96639.91
2022-11-16T19:25:27.298Z,96644.59
2022-11-16T19:27:55.500Z,96639.72
2022-11-16T19:30:23.678Z,96637.25
2022-11-16T19:32:56.969Z,96632.09
2022-11-16T19:35:25.478Z,96625.34
2022-11-16T19:37:54.919Z,96623.56
2022-11-16T19:40:25.123Z,96618.31
2022-11-16T19:42:54.020Z,96607.84
2022-11-16T19:45:22.091Z,96605.34
2022-11-16T19:47:50.338Z,96588.81
2022-11-16T19:50:18.548Z,96588.81
2022-11-16T19:52:46.689Z,96586.19
2022-11-16T19:55:16.508Z,96577.59
2022-11-16T19:57:44.638Z,96577.75
2022-11-16T20:00:14.204Z,96576.09
2022-11-16T20:02:43.287Z,96563.81
2022-11-16T20:05:12.265Z,96555.97
2022-11-16T20:07:41.236Z,96540.53
2022-11-16T20:10:10.217Z,96539.78
2022-11-16T20:12:39.838Z,96538.88
2022-11-16T20:15:08.479Z,96535.38
2022-11-16T20:17:36.677Z,96523.25
2022-11-16T20:20:05.137Z,96516.97
2022-11-16T20:22:33.384Z,96514.44
2022-11-16T20:25:01.549Z,96515.41
2022-11-16T20:27:29.846Z,96510.16
2022-11-16T20:29:59.308Z,96503.13
2022-11-16T20:32:27.578Z,96503.03
2022-11-16T20:34:55.684Z,96491.72
2022-11-16T20:37:23.836Z,96491.84
2022-11-16T20:39:57.084Z,96484.81
2022-11-16T20:42:25.996Z,96483.16
2022-11-16T20:44:54.096Z,96475.53
2022-11-16T20:47:23.564Z,96471.28
2022-11-16T20:49:51.678Z,96458.19
2022-11-16T20:52:19.927Z,96454.84
2022-11-16T20:54:48.077Z,96452.22
2022-11-16T20:57:16.337Z,96444.38
2022-11-16T20:59:44.475Z,96446.16
2022-11-16T21:02:12.680Z,96438.44
2022-11-16T21:04:42.156Z,96433.47
2022-11-16T21:07:11.006Z,96436.09
2022-11-16T21:09:53.118Z,96426.00
2022-11-16T21:12:42.776Z,96420.91
2022-11-16T21:15:11.498Z,96415.91
2022-11-16T21:17:39.628Z,96415.22
2022-11-16T21:20:28.526Z,96420.81
2022-11-16T21:22:56.840Z,96422.88
2022-11-16T21:25:24.976Z,96408.38
2022-11-16T21:27:53.118Z,96408.06
2022-11-16T21:30:21.629Z,96401.31
2022-11-16T21:32:50.317Z,96392.06
2022-11-16T21:35:20.930Z,96387.19
2022-11-16T21:37:49.116Z,96385.53
2022-11-16T21:40:17.486Z,96391.88
2022-11-16T21:42:47.510Z,96381.66
2022-11-16T21:45:15.739Z,96389.63
2022-11-16T21:47:43.929Z,96380.94
2022-11-16T21:53:01.747Z,96379.44
2022-11-16T21:55:29.950Z,96365.41
2022-11-16T21:57:58.647Z,96370.63
2022-11-16T22:00:27.454Z,96370.63
2022-11-16T22:02:55.745Z,96368.69
2022-11-16T22:05:41.279Z,96361.81
2022-11-16T22:08:12.748Z,96361.00
2022-11-16T22:10:41.119Z,96349.69
2022-11-16T22:13:09.257Z,96342.53
2022-11-16T22:15:37.442Z,96348.59
2022-11-16T22:18:05.945Z,96345.28
2022-11-16T22:20:34.117Z,96341.03
2022-11-16T22:23:02.164Z,96346.25
2022-11-16T22:25:31.727Z,96346.25
2022-11-16T22:28:19.858Z,96347.22
2022-11-16T22:30:51.735Z,96329.84
2022-11-16T22:33:20.699Z,96332.44
2022-11-16T22:35:48.815Z,96335.63
2022-11-16T22:38:16.909Z,96332.28
2022-11-16T22:40:52.230Z,96329.78
2022-11-16T22:43:21.138Z,96327.03
2022-11-16T22:45:49.345Z,96321.81
2022-11-16T22:48:17.999Z,96321.72
2022-11-16T22:50:46.058Z,96325.00
2022-11-16T22:53:14.207Z,96328.47
2022-11-16T22:55:42.286Z,96329.00
2022-11-16T22:58:11.811Z,96320.34
2022-11-16T23:00:42.195Z,96315.56
2022-11-16T23:03:10.695Z,96323.16
2022-11-16T23:05:38.779Z,96320.28
2022-11-16T23:08:07.149Z,96320.97
2022-11-16T23:10:56.300Z,96323.47
2022-11-16T23:13:43.324Z,96323.59
2022-11-16T23:16:11.569Z,96313.25
2022-11-16T23:18:39.749Z,96311.75
2022-11-16T23:21:25.348Z,96311.75
2022-11-16T23:24:10.979Z,96310.91
2022-11-16T23:26:56.679Z,96300.56
2022-11-16T23:29:26.271Z,96305.69
2022-11-16T23:31:54.490Z,96301.28
2022-11-16T23:34:22.736Z,96308.72
2022-11-16T23:36:50.891Z,96307.88
2022-11-16T23:39:19.330Z,96305.03
2022-11-16T23:42:03.779Z,96310.94
2022-11-16T23:44:33.269Z,96306.69
2022-11-16T23:47:01.454Z,96303.38
2022-11-16T23:49:29.796Z,96318.09
2022-11-16T23:51:58.029Z,96306.00
2022-11-16T23:54:26.249Z,96304.31
2022-11-16T23:56:54.421Z,96298.75
2022-11-16T23:59:22.581Z,96304.28
